Time;durP1;ratioP1;P1;durP2;ratioP2;P2;SDS_P1;SDS_P2;PMS_P1;PMS_P2;Temp;Humidity;BMP_temperature;BMP_pressure;BME280_temperature;BME280_humidity;BME280_pressure;Samples;Min_cycle;Max_cycle;Signal;HPM_P1;HPM_P2
2022/09/25 00:02:54;;;;;;;13.77;7.03;;;;;;;10.99;100.00;100224.69;5568541;32;34689;-68
2022/09/25 00:06:10;;;;;;;10.52;7.28;;;;;;;10.94;100.00;100221.72;5568493;32;33949;-68
2022/09/25 00:09:13;;;;;;;12.90;7.40;;;;;;;10.87;100.00;100226.91;5554492;32;32783;-67
2022/09/25 00:12:16;;;;;;;14.02;6.90;;;;;;;10.82;100.00;100217.81;5568351;32;34566;-68
2022/09/25 00:15:18;;;;;;;10.63;7.43;;;;;;;10.80;100.00;100220.63;5568281;32;33980;-67
2022/09/25 00:21:50;;;;;;;11.70;7.60;;;;;;;10.75;100.00;100217.66;5568171;32;33895;-68
2022/09/25 00:24:53;;;;;;;15.52;7.78;;;;;;;10.84;100.00;100213.97;5568472;32;33949;-68
2022/09/25 00:27:55;;;;;;;12.15;7.45;;;;;;;10.82;100.00;100216.00;5570906;32;34456;-68
2022/09/25 00:30:58;;;;;;;14.00;7.30;;;;;;;10.81;100.00;100202.87;5571248;32;34031;-68
2022/09/25 00:34:04;;;;;;;12.75;7.12;;;;;;;10.82;100.00;100208.03;5557080;32;32183;-68
2022/09/25 00:37:07;;;;;;;11.30;7.25;;;;;;;10.83;100.00;100206.22;5570843;32;34310;-67
2022/09/25 00:40:09;;;;;;;11.05;7.53;;;;;;;10.85;100.00;100212.97;5544479;32;34636;-67
2022/09/25 00:43:14;;;;;;;12.65;7.75;;;;;;;10.92;100.00;100202.50;5570987;32;33914;-67
2022/09/25 00:46:34;;;;;;;13.32;8.60;;;;;;;10.99;100.00;100206.09;5570908;32;33964;-67
2022/09/25 00:49:38;;;;;;;12.20;8.77;;;;;;;11.07;100.00;100199.94;5570988;32;35317;-68
2022/09/25 00:52:41;;;;;;;14.63;8.57;;;;;;;11.12;100.00;100208.19;5556919;32;32822;-68
2022/09/25 00:55:45;;;;;;;14.45;9.20;;;;;;;11.16;100.00;100205.03;5570799;32;33930;-68
2022/09/25 00:58:47;;;;;;;15.68;9.02;;;;;;;11.21;100.00;100207.97;5570830;32;34617;-68
2022/09/25 01:01:50;;;;;;;15.02;8.82;;;;;;;11.24;100.00;100198.81;5570725;32;34673;-68
2022/09/25 01:04:57;;;;;;;14.73;9.88;;;;;;;11.27;100.00;100199.31;5571130;32;33941;-68
2022/09/25 01:08:03;;;;;;;18.80;10.43;;;;;;;11.29;100.00;100191.97;5570718;32;33956;-68
2022/09/25 01:11:06;;;;;;;14.87;9.70;;;;;;;11.32;100.00;100189.00;5570609;32;34684;-68
2022/09/25 01:14:09;;;;;;;14.82;9.73;;;;;;;11.35;100.00;100195.75;5570635;32;34737;-68
2022/09/25 01:17:39;;;;;;;17.40;9.90;;;;;;;11.36;100.00;100200.06;5570837;32;34579;-68
2022/09/25 01:21:00;;;;;;;17.25;9.90;;;;;;;11.40;100.00;100198.72;5570896;32;34359;-68
2022/09/25 01:24:35;;;;;;;14.32;10.05;;;;;;;11.44;100.00;100191.22;5570910;32;35195;-68
2022/09/25 01:28:01;;;;;;;20.57;10.17;;;;;;;11.45;100.00;100196.34;5570527;32;34403;-68
2022/09/25 01:31:15;;;;;;;13.45;9.70;;;;;;;11.45;100.00;100204.31;5570405;32;34548;-68
2022/09/25 01:34:53;;;;;;;16.83;10.98;;;;;;;11.44;100.00;100210.63;5570433;32;34868;-68
2022/09/25 01:38:21;;;;;;;14.98;9.98;;;;;;;11.47;100.00;100207.63;5501205;32;34127;-68
2022/09/25 01:41:27;;;;;;;17.25;10.63;;;;;;;11.63;100.00;100201.34;5570372;32;34427;-68
2022/09/25 01:44:37;;;;;;;17.40;10.32;;;;;;;11.64;100.00;100190.56;5570372;32;33843;-67
2022/09/25 01:47:44;;;;;;;15.13;10.18;;;;;;;11.79;100.00;100195.09;5570540;32;34669;-67
2022/09/25 01:51:10;;;;;;;17.30;10.13;;;;;;;12.00;100.00;100196.06;5556714;32;34621;-67
2022/09/25 01:54:37;;;;;;;16.37;10.55;;;;;;;11.82;100.00;100202.72;5570532;32;34601;-67
2022/09/25 01:57:47;;;;;;;15.13;10.48;;;;;;;11.75;100.00;100197.31;5570092;32;34144;-67
2022/09/25 02:00:58;;;;;;;21.25;10.10;;;;;;;11.65;100.00;100205.50;5570457;32;34047;-68
2022/09/25 02:04:07;;;;;;;16.70;10.63;;;;;;;11.56;100.00;100193.28;5570162;32;34880;-68
2022/09/25 02:07:17;;;;;;;14.83;10.47;;;;;;;11.65;100.00;100183.41;5570097;32;34538;-68
2022/09/25 02:10:31;;;;;;;15.77;10.43;;;;;;;11.59;100.00;100184.94;5570241;32;34085;-68
2022/09/25 02:13:57;;;;;;;16.48;10.20;;;;;;;11.57;100.00;100186.16;5570140;32;34068;-67
2022/09/25 02:17:04;;;;;;;15.60;10.18;;;;;;;11.64;100.00;100179.09;5569944;32;34606;-67
2022/09/25 02:23:38;;;;;;;16.08;10.57;;;;;;;11.42;100.00;100191.41;5569991;32;34077;-68
2022/09/25 02:26:41;;;;;;;15.38;10.57;;;;;;;11.39;100.00;100186.44;5570185;32;34506;-68
2022/09/25 02:29:44;;;;;;;18.45;10.32;;;;;;;11.29;100.00;100197.28;5570041;32;34318;-68
2022/09/25 02:32:47;;;;;;;15.20;9.95;;;;;;;11.23;100.00;100202.50;5570134;32;33973;-68
2022/09/25 02:35:49;;;;;;;14.45;9.88;;;;;;;11.12;100.00;100194.94;5570147;32;34082;-68
2022/09/25 02:38:54;;;;;;;16.58;10.55;;;;;;;11.00;100.00;100193.66;5569733;32;34146;-68
2022/09/25 02:42:15;;;;;;;14.68;10.02;;;;;;;10.90;100.00;100188.56;5569905;32;34523;-68
2022/09/25 02:45:26;;;;;;;12.25;8.82;;;;;;;10.80;100.00;100187.97;5569805;32;34075;-68
2022/09/25 02:48:53;;;;;;;14.85;9.93;;;;;;;10.80;100.00;100193.28;5568935;32;34384;-67
2022/09/25 02:52:04;;;;;;;11.82;8.65;;;;;;;10.85;100.00;100194.41;5569666;32;33977;-67
2022/09/25 02:55:24;;;;;;;12.48;8.80;;;;;;;10.74;100.00;100197.47;5569566;32;34619;-68
2022/09/25 02:58:31;;;;;;;14.60;8.98;;;;;;;10.64;100.00;100194.19;5569519;32;34561;-68
2022/09/25 03:01:38;;;;;;;13.00;9.15;;;;;;;10.56;100.00;100196.03;5556036;32;34578;-68
2022/09/25 03:04:42;;;;;;;12.40;8.85;;;;;;;10.47;100.00;100187.28;5569492;32;34027;-68
2022/09/25 03:11:09;;;;;;;14.70;9.23;;;;;;;10.69;100.00;100167.97;5569284;32;34219;-67
2022/09/25 03:14:12;;;;;;;12.40;9.00;;;;;;;10.67;100.00;100174.44;5569355;32;34210;-67
2022/09/25 03:17:16;;;;;;;12.45;8.80;;;;;;;10.54;100.00;100172.34;5569333;32;34052;-67
2022/09/25 03:20:19;;;;;;;13.27;9.27;;;;;;;10.48;100.00;100167.72;5569376;32;34560;-68
2022/09/25 03:23:21;;;;;;;15.18;9.52;;;;;;;10.41;100.00;100164.09;5569181;32;34639;-67
2022/09/25 03:26:26;;;;;;;12.05;8.80;;;;;;;10.37;100.00;100168.09;5569202;32;34060;-67
2022/09/25 03:29:29;;;;;;;11.65;8.52;;;;;;;10.33;100.00;100158.84;5568970;32;34650;-67
2022/09/25 03:32:32;;;;;;;13.25;8.98;;;;;;;10.34;100.00;100156.03;5569110;32;33965;-68
2022/09/25 03:35:36;;;;;;;13.48;8.95;;;;;;;10.37;100.00;100163.63;5568941;32;34676;-68
2022/09/25 03:38:40;;;;;;;14.82;9.00;;;;;;;10.34;100.00;100160.50;5569005;32;34544;-68
2022/09/25 03:41:44;;;;;;;13.98;8.68;;;;;;;10.36;100.00;100164.62;5568918;32;34761;-68
2022/09/25 03:44:47;;;;;;;11.90;8.52;;;;;;;10.35;100.00;100162.16;5568964;32;34337;-67
2022/09/25 03:47:49;;;;;;;10.77;8.30;;;;;;;10.33;100.00;100164.97;5568820;32;34804;-68
2022/09/25 03:50:52;;;;;;;13.82;9.43;;;;;;;10.32;100.00;100173.09;5555024;32;32443;-67
2022/09/25 03:53:55;;;;;;;12.50;8.13;;;;;;;10.30;100.00;100175.09;5568718;32;34689;-67
2022/09/25 03:56:57;;;;;;;12.00;8.55;;;;;;;10.29;100.00;100184.88;5568657;32;33993;-68
2022/09/25 04:00:01;;;;;;;11.73;8.20;;;;;;;10.35;100.00;100183.37;5569949;32;34580;-68
2022/09/25 04:03:14;;;;;;;15.13;8.77;;;;;;;10.43;100.00;100199.25;5571309;32;34417;-68
2022/09/25 04:06:20;;;;;;;14.65;8.48;;;;;;;10.53;100.00;100196.37;5571255;32;34471;-67
2022/09/25 04:09:22;;;;;;;12.23;8.98;;;;;;;10.59;100.00;100195.72;5571153;32;34051;-68
2022/09/25 04:12:25;;;;;;;14.25;8.43;;;;;;;10.63;100.00;100192.53;5557317;32;34675;-68
2022/09/25 04:15:28;;;;;;;13.75;8.57;;;;;;;10.82;100.00;100189.47;5544535;32;33391;-68
2022/09/25 04:18:31;;;;;;;11.73;8.65;;;;;;;10.97;100.00;100194.03;5571105;32;34622;-68
2022/09/25 04:21:34;;;;;;;11.60;8.13;;;;;;;11.09;100.00;100184.66;5571120;32;34549;-68
2022/09/25 04:24:49;;;;;;;11.98;8.57;;;;;;;11.18;100.00;100184.41;5571206;32;34656;-68
2022/09/25 04:27:55;;;;;;;15.32;8.63;;;;;;;11.12;100.00;100187.78;5557241;32;32340;-68
2022/09/25 04:30:58;;;;;;;11.15;8.10;;;;;;;11.04;100.00;100181.69;5557320;32;32454;-68
2022/09/25 04:34:01;;;;;;;12.37;8.77;;;;;;;11.07;100.00;100184.84;5571059;32;34059;-68
2022/09/25 04:37:04;;;;;;;12.07;8.57;;;;;;;11.10;100.00;100186.31;5570963;32;34679;-68
2022/09/25 04:40:09;;;;;;;11.57;8.52;;;;;;;11.02;100.00;100184.53;5571257;32;33893;-68
2022/09/25 04:43:12;;;;;;;12.75;8.23;;;;;;;11.00;100.00;100185.69;5570794;32;34867;-68
2022/09/25 04:46:16;;;;;;;10.23;7.93;;;;;;;11.04;100.00;100181.69;5571127;32;34609;-68
2022/09/25 04:49:24;;;;;;;10.90;8.25;;;;;;;11.11;100.00;100175.50;5557102;32;32330;-68
2022/09/25 04:52:30;;;;;;;12.45;8.27;;;;;;;11.04;100.00;100171.91;5571274;32;34026;-68
2022/09/25 04:55:33;;;;;;;10.82;7.53;;;;;;;10.98;100.00;100166.50;5571125;32;34557;-68
2022/09/25 04:58:35;;;;;;;13.23;8.18;;;;;;;11.05;100.00;100178.88;5570819;32;34647;-68
2022/09/25 05:01:38;;;;;;;14.90;8.68;;;;;;;11.12;100.00;100181.66;5570844;32;34726;-68
2022/09/25 05:04:41;;;;;;;22.75;10.05;;;;;;;11.14;100.00;100174.31;5556784;32;32634;-68
2022/09/25 05:07:58;;;;;;;13.45;7.95;;;;;;;11.27;100.00;100174.59;5557019;32;33964;-68
2022/09/25 05:11:02;;;;;;;12.70;7.78;;;;;;;11.23;100.00;100183.91;5570218;32;34327;-67
2022/09/25 05:14:05;;;;;;;10.55;7.87;;;;;;;11.19;100.00;100195.88;5570742;32;34108;-67
2022/09/25 05:17:10;;;;;;;12.45;8.20;;;;;;;11.29;100.00;100191.16;5556507;32;32635;-67
2022/09/25 05:20:13;;;;;;;11.18;7.62;;;;;;;11.44;100.00;100186.72;5570403;32;34075;-67
2022/09/25 05:23:16;;;;;;;16.02;8.15;;;;;;;11.67;100.00;100182.22;5570573;32;34119;-68
2022/09/25 05:26:21;;;;;;;12.45;8.00;;;;;;;11.40;100.00;100189.91;5556491;32;32690;-68
2022/09/25 05:29:23;;;;;;;11.25;7.50;;;;;;;11.48;100.00;100187.19;5570399;32;34634;-68
2022/09/25 05:32:28;;;;;;;10.77;7.53;;;;;;;11.50;100.00;100199.31;5570557;32;34039;-68
2022/09/25 05:35:32;;;;;;;12.70;8.18;;;;;;;11.64;100.00;100200.34;5550289;32;33169;-68
2022/09/25 05:38:38;;;;;;;12.57;8.10;;;;;;;11.71;100.00;100193.31;5550596;32;34079;-68
2022/09/25 05:41:40;;;;;;;13.65;8.45;;;;;;;11.63;100.00;100182.75;5550999;32;33976;-68
2022/09/25 05:44:43;;;;;;;10.43;7.90;;;;;;;11.52;100.00;100184.00;5550739;32;34156;-68
2022/09/25 05:47:46;;;;;;;11.63;7.75;;;;;;;11.57;100.00;100197.56;5550926;32;33829;-68
2022/09/25 05:50:54;;;;;;;10.55;7.70;;;;;;;11.52;100.00;100201.78;5550206;32;34378;-68
2022/09/25 05:53:57;;;;;;;9.80;7.47;;;;;;;11.46;100.00;100198.00;5550907;32;34054;-68
2022/09/25 05:56:59;;;;;;;15.50;7.10;;;;;;;11.41;100.00;100194.22;5551175;32;34449;-68
2022/09/25 06:00:08;;;;;;;9.95;6.82;;;;;;;11.50;100.00;100199.31;5550916;32;34602;-68
2022/09/25 06:03:13;;;;;;;8.93;7.25;;;;;;;11.76;100.00;100193.66;5549950;32;34044;-68
2022/09/25 06:06:16;;;;;;;12.05;7.35;;;;;;;11.83;100.00;100199.87;5550907;32;34075;-69
2022/09/25 06:09:19;;;;;;;9.77;6.90;;;;;;;11.93;100.00;100204.94;5550673;32;33945;-69
2022/09/25 06:12:23;;;;;;;11.27;6.62;;;;;;;12.09;100.00;100212.78;5550569;32;33960;-68
2022/09/25 06:15:36;;;;;;;10.80;6.68;;;;;;;12.25;100.00;100212.56;5550449;32;34077;-68
2022/09/25 06:18:40;;;;;;;11.75;6.37;;;;;;;12.34;100.00;100222.16;5550830;32;34300;-69
2022/09/25 06:21:43;;;;;;;10.00;6.65;;;;;;;12.47;100.00;100224.16;5550536;32;34003;-67
2022/09/25 06:24:47;;;;;;;13.32;6.70;;;;;;;12.48;100.00;100218.66;5549414;32;33932;-68
2022/09/25 06:27:59;;;;;;;10.20;6.72;;;;;;;12.28;100.00;100224.72;5549497;32;34392;-68
2022/09/25 06:31:03;;;;;;;10.70;6.62;;;;;;;12.27;100.00;100220.37;5550288;32;34363;-67
2022/09/25 06:34:08;;;;;;;11.05;6.85;;;;;;;12.28;100.00;100222.88;5550430;32;34695;-69
2022/09/25 06:37:11;;;;;;;8.93;6.32;;;;;;;12.12;100.00;100231.84;5568084;32;34411;-68
2022/09/25 06:40:14;;;;;;;10.50;6.62;;;;;;;12.14;100.00;100229.00;5569849;32;34315;-68
2022/09/25 06:43:18;;;;;;;11.07;6.22;;;;;;;12.41;100.00;100227.53;5569793;32;34828;-67
2022/09/25 06:46:21;;;;;;;12.10;6.65;;;;;;;12.40;100.00;100234.69;5569686;32;34192;-68
2022/09/25 06:49:23;;;;;;;12.10;6.70;;;;;;;12.37;100.00;100228.94;5569435;32;33999;-68
2022/09/25 06:52:26;;;;;;;8.80;6.32;;;;;;;12.55;100.00;100226.72;5569485;32;35100;-68
2022/09/25 06:55:33;;;;;;;11.43;6.40;;;;;;;12.61;100.00;100228.66;5569418;32;35219;-68
2022/09/25 06:58:36;;;;;;;10.30;7.03;;;;;;;12.78;98.38;100227.44;5555596;32;33260;-68
2022/09/25 07:01:41;;;;;;;10.57;6.50;;;;;;;12.61;100.00;100226.81;5569691;32;35192;-69
2022/09/25 07:04:43;;;;;;;8.00;6.12;;;;;;;12.61;99.56;100233.97;5569586;32;34083;-69
2022/09/25 07:07:47;;;;;;;10.43;6.53;;;;;;;12.84;97.74;100248.00;5569646;32;34031;-68
2022/09/25 07:10:52;;;;;;;8.30;5.82;;;;;;;12.88;97.18;100240.44;5569511;32;34619;-68
2022/09/25 07:13:55;;;;;;;8.30;6.50;;;;;;;12.76;97.28;100236.63;5569253;32;34152;-68
2022/09/25 07:16:57;;;;;;;11.85;6.20;;;;;;;12.34;100.00;100242.59;5569395;32;34087;-68
2022/09/25 07:20:00;;;;;;;9.10;6.43;;;;;;;12.34;100.00;100234.63;5569287;32;33896;-68
2022/09/25 07:23:03;;;;;;;11.05;6.20;;;;;;;12.46;100.00;100236.63;5569165;32;35327;-68
2022/09/25 07:26:21;;;;;;;11.30;6.68;;;;;;;12.75;98.52;100222.50;5569089;32;34695;-68
2022/09/25 07:29:24;;;;;;;9.57;6.60;;;;;;;12.90;97.00;100225.12;5555171;32;32457;-68
2022/09/25 07:32:28;;;;;;;8.52;6.22;;;;;;;13.23;95.00;100215.69;5569093;32;34007;-69
2022/09/25 07:35:30;;;;;;;8.82;6.20;;;;;;;13.66;92.60;100231.69;5570871;32;33869;-68
2022/09/25 07:38:33;;;;;;;11.82;6.70;;;;;;;14.04;90.42;100233.03;5571469;32;33938;-68
2022/09/25 07:41:36;;;;;;;8.57;6.45;;;;;;;14.42;88.83;100230.91;5571387;32;34015;-68
2022/09/25 07:44:39;;;;;;;13.38;6.45;;;;;;;14.20;87.70;100226.59;5571402;32;34188;-68
2022/09/25 07:47:48;;;;;;;8.77;6.50;;;;;;;14.69;85.44;100227.34;5571290;32;34107;-68
2022/09/25 07:50:54;;;;;;;12.30;6.70;;;;;;;14.99;84.71;100211.88;5557195;32;32892;-68
2022/09/25 07:53:57;;;;;;;9.40;6.68;;;;;;;15.27;83.21;100201.03;5570604;32;34016;-69
2022/09/25 07:56:59;;;;;;;11.07;6.37;;;;;;;15.03;86.07;100193.56;5571165;32;34498;-69
2022/09/25 08:00:04;;;;;;;11.18;6.47;;;;;;;15.72;82.16;100194.16;5570946;32;33969;-69
2022/09/25 08:03:13;;;;;;;13.65;6.70;;;;;;;15.92;78.52;100204.84;5558051;32;33897;-69
2022/09/25 08:06:16;;;;;;;10.30;6.90;;;;;;;16.21;77.68;100195.53;5557648;32;34273;-68
2022/09/25 08:09:19;;;;;;;12.25;6.72;;;;;;;16.48;76.88;100191.75;5557779;32;33849;-68
2022/09/25 08:12:25;;;;;;;10.30;6.18;;;;;;;16.34;77.17;100199.00;5571439;32;34644;-68
2022/09/25 08:15:27;;;;;;;11.65;6.90;;;;;;;15.98;77.89;100191.44;5570945;32;34598;-68
2022/09/25 08:18:32;;;;;;;13.25;6.80;;;;;;;15.96;79.26;100196.19;5571404;32;35491;-68
2022/09/25 08:21:34;;;;;;;11.73;6.15;;;;;;;16.15;79.17;100196.37;5570816;32;34672;-68
2022/09/25 08:24:37;;;;;;;9.15;6.20;;;;;;;16.39;77.03;100209.09;5557343;32;34033;-68
2022/09/25 08:27:40;;;;;;;10.35;6.65;;;;;;;16.36;77.31;100210.31;5570883;32;34015;-69
2022/09/25 08:30:43;;;;;;;12.85;6.43;;;;;;;16.37;76.07;100206.63;5557023;32;32562;-68
2022/09/25 08:33:48;;;;;;;14.13;6.15;;;;;;;16.71;75.44;100205.50;5556817;32;32694;-68
2022/09/25 08:36:50;;;;;;;13.38;6.72;;;;;;;16.60;75.18;100208.88;5556815;32;32475;-68
2022/09/25 08:39:53;;;;;;;12.45;7.10;;;;;;;16.63;76.93;100207.63;5570967;32;33905;-69
2022/09/25 08:42:57;;;;;;;9.88;6.37;;;;;;;16.71;74.74;100213.56;5557040;32;32425;-69
2022/09/25 08:49:32;;;;;;;9.80;6.57;;;;;;;16.77;74.13;100207.34;5570433;32;34176;-68
2022/09/25 08:52:40;;;;;;;13.48;7.00;;;;;;;16.86;73.44;100202.56;5557112;32;34249;-69
2022/09/25 08:56:28;;;;;;;15.10;6.20;;;;;;;16.88;73.30;100197.84;5570361;32;34054;-69
2022/09/25 08:59:33;;;;;;;9.38;5.65;;;;;;;16.93;73.94;100198.84;5564874;32;33975;-69
2022/09/25 09:02:45;;;;;;;7.72;5.62;;;;;;;16.87;73.13;100205.03;5570715;32;34038;-70
2022/09/25 09:05:50;;;;;;;11.80;5.43;;;;;;;16.69;74.03;100199.56;5570281;32;33926;-69
2022/09/25 09:09:20;;;;;;;10.13;6.10;;;;;;;16.68;73.53;100200.59;5556464;32;32853;-69
2022/09/25 09:12:33;;;;;;;10.15;5.22;;;;;;;17.02;72.80;100196.72;5570841;32;33871;-69
2022/09/25 09:15:38;;;;;;;8.25;5.32;;;;;;;17.01;72.12;100211.16;5556298;32;33091;-70
2022/09/25 09:18:42;;;;;;;10.15;5.72;;;;;;;16.86;73.74;100206.06;5570891;32;34619;-68
2022/09/25 09:21:59;;;;;;;8.45;4.80;;;;;;;16.80;74.24;100208.78;5555881;32;33413;-69
2022/09/25 09:25:23;;;;;;;10.98;5.03;;;;;;;16.50;74.53;100214.63;5556760;32;33391;-69
2022/09/25 09:28:47;;;;;;;9.80;5.18;;;;;;;16.37;76.79;100216.50;5570192;32;34637;-68
2022/09/25 09:31:56;;;;;;;7.70;4.37;;;;;;;16.20;79.13;100207.28;5570575;32;34007;-69
2022/09/25 09:35:27;;;;;;;7.72;3.60;;;;;;;16.32;76.27;100211.78;5570054;32;34027;-70
2022/09/25 09:38:55;;;;;;;6.00;3.90;;;;;;;16.18;75.22;100202.13;5556789;32;32354;-70
2022/09/25 09:42:10;;;;;;;7.22;3.53;;;;;;;16.16;75.78;100209.56;5543855;32;33508;-70
2022/09/25 09:45:27;;;;;;;6.15;3.35;;;;;;;16.14;76.71;100208.94;5570175;32;33986;-69
2022/09/25 09:48:44;;;;;;;5.65;3.12;;;;;;;16.16;77.09;100208.72;5570265;32;35224;-69
2022/09/25 09:52:02;;;;;;;8.60;4.50;;;;;;;16.08;76.17;100204.41;5570157;32;34670;-69
2022/09/25 09:55:19;;;;;;;6.60;4.65;;;;;;;16.11;78.17;100195.97;5570049;32;35482;-69
2022/09/25 09:58:58;;;;;;;10.45;4.95;;;;;;;16.05;80.59;100202.97;5556158;32;33924;-70
2022/09/25 10:02:19;;;;;;;8.80;4.60;;;;;;;16.10;82.16;100199.69;5558383;32;33864;-69
2022/09/25 10:05:22;;;;;;;8.68;4.78;;;;;;;15.93;85.44;100198.44;5570238;32;34272;-69
2022/09/25 10:08:24;;;;;;;8.30;5.00;;;;;;;16.02;84.91;100194.53;5570130;32;34075;-70
2022/09/25 10:11:31;;;;;;;8.07;4.55;;;;;;;16.09;85.84;100192.66;5570391;32;33875;-70
2022/09/25 10:14:38;;;;;;;5.65;2.85;;;;;;;15.91;90.15;100192.47;5556297;32;32293;-70
2022/09/25 10:17:41;;;;;;;6.00;2.62;;;;;;;15.72;81.43;100190.63;5556416;32;33922;-70
2022/09/25 10:20:58;;;;;;;4.32;2.72;;;;;;;15.31;83.51;100191.59;5569983;32;34622;-70
2022/09/25 10:24:02;;;;;;;5.55;2.42;;;;;;;15.13;91.98;100186.81;5569268;32;33344;-69
2022/09/25 10:27:27;;;;;;;3.45;2.55;;;;;;;14.99;88.54;100189.66;5569751;32;34557;-70
2022/09/25 10:30:31;;;;;;;4.28;2.62;;;;;;;15.01;93.67;100196.44;5569719;32;33963;-70
2022/09/25 10:33:34;;;;;;;6.97;2.53;;;;;;;15.23;96.19;100195.28;5556278;32;33317;-69
2022/09/25 10:36:39;;;;;;;3.45;2.20;;;;;;;15.22;92.81;100192.81;5555831;32;33958;-69
2022/09/25 10:39:41;;;;;;;6.00;2.30;;;;;;;15.26;92.65;100191.38;5555877;32;32003;-69
2022/09/25 10:42:48;;;;;;;4.75;2.70;;;;;;;15.31;92.84;100185.41;5569890;32;34678;-68
2022/09/25 10:46:09;;;;;;;3.17;2.20;;;;;;;15.27;94.32;100187.69;5569709;32;34134;-70
2022/09/25 10:53:06;;;;;;;2.70;2.00;;;;;;;15.33;96.81;100180.69;5555920;32;32615;-69
2022/09/25 10:56:14;;;;;;;5.78;2.10;;;;;;;15.32;94.00;100171.03;5556026;32;34744;-68
2022/09/25 10:59:20;;;;;;;3.40;2.30;;;;;;;15.45;91.07;100165.69;5569396;32;34405;-69
2022/09/25 11:02:36;;;;;;;4.45;2.20;;;;;;;15.56;93.57;100162.44;5569387;32;34012;-69
2022/09/25 11:05:49;;;;;;;3.83;2.45;;;;;;;15.57;91.86;100164.94;5569432;32;34274;-70
2022/09/25 11:09:01;;;;;;;5.15;2.60;;;;;;;15.67;96.11;100161.00;5568628;32;34272;-68
2022/09/25 11:12:12;;;;;;;4.28;2.50;;;;;;;15.76;95.55;100155.25;5569384;32;34705;-69
2022/09/25 11:15:19;;;;;;;5.28;3.25;;;;;;;15.94;95.14;100152.75;5569247;32;34080;-69
2022/09/25 11:18:36;;;;;;;5.47;2.67;;;;;;;16.25;91.04;100148.59;5555524;32;32862;-68
2022/09/25 11:21:58;;;;;;;3.90;2.50;;;;;;;16.48;86.56;100154.28;5569196;32;34142;-69
2022/09/25 11:25:14;;;;;;;4.28;2.80;;;;;;;16.55;87.76;100159.63;5569175;32;34570;-70
2022/09/25 11:28:34;;;;;;;3.80;2.75;;;;;;;16.36;91.82;100148.75;5555123;32;33348;-69
2022/09/25 11:31:42;;;;;;;3.50;2.62;;;;;;;16.22;89.59;100155.16;5555253;32;34321;-69
2022/09/25 11:35:23;;;;;;;4.82;2.80;;;;;;;16.11;88.47;100158.50;5569164;32;34291;-70
2022/09/25 11:42:13;;;;;;;5.45;3.05;;;;;;;15.91;93.03;100155.03;5568798;32;34022;-70
2022/09/25 11:45:35;;;;;;;6.05;3.28;;;;;;;15.88;93.37;100150.91;5555881;32;34093;-70
2022/09/25 11:48:53;;;;;;;8.90;3.33;;;;;;;15.85;93.44;100166.56;5568823;32;33912;-70
2022/09/25 11:52:17;;;;;;;5.22;3.20;;;;;;;15.74;94.45;100156.47;5568468;32;32433;-69
2022/09/25 11:55:44;;;;;;;5.28;3.17;;;;;;;15.83;92.75;100153.38;5555004;32;32343;-69
2022/09/25 11:59:14;;;;;;;6.30;3.30;;;;;;;15.71;94.94;100149.69;5554582;32;32468;-69
2022/09/25 12:02:51;;;;;;;7.22;3.25;;;;;;;15.68;100.00;100150.13;5554452;32;32792;-68
2022/09/25 12:06:23;;;;;;;9.60;3.20;;;;;;;15.56;96.18;100141.06;5568301;32;34212;-68
2022/09/25 12:09:32;;;;;;;3.85;2.60;;;;;;;15.63;96.85;100141.91;5554535;32;33284;-68
2022/09/25 12:12:46;;;;;;;3.22;2.05;;;;;;;15.64;95.09;100141.66;5568298;32;34064;-69
2022/09/25 12:16:11;;;;;;;3.03;2.05;;;;;;;15.47;95.85;100143.09;5554466;32;33921;-68
2022/09/25 12:19:22;;;;;;;4.32;2.25;;;;;;;15.17;100.00;100147.97;5554714;32;34609;-69
2022/09/25 12:22:47;;;;;;;3.85;2.25;;;;;;;14.97;100.00;100139.09;5569928;32;34729;-69
2022/09/25 12:26:05;;;;;;;3.72;2.33;;;;;;;14.82;100.00;100148.28;5570809;32;34717;-69
2022/09/25 12:29:32;;;;;;;6.25;2.45;;;;;;;14.83;100.00;100141.94;5557369;32;33103;-69
2022/09/25 12:32:56;;;;;;;5.22;2.47;;;;;;;14.79;100.00;100144.19;5570867;32;34781;-70
2022/09/25 12:36:14;;;;;;;3.72;2.40;;;;;;;14.84;100.00;100136.41;5570923;31;33946;-70
2022/09/25 12:39:39;;;;;;;3.83;2.15;;;;;;;14.88;100.00;100136.81;5570597;32;34279;-70
2022/09/25 12:43:16;;;;;;;4.45;2.30;;;;;;;15.13;100.00;100132.56;5570589;32;33973;-70
2022/09/25 12:46:28;;;;;;;3.00;2.10;;;;;;;15.13;100.00;100124.53;5570734;32;34365;-69
2022/09/25 12:49:34;;;;;;;3.37;2.30;;;;;;;15.30;100.00;100128.47;5570899;32;33853;-71
2022/09/25 12:52:44;;;;;;;3.42;2.15;;;;;;;15.19;100.00;100129.09;5556643;32;32495;-69
2022/09/25 12:56:20;;;;;;;3.55;2.50;;;;;;;15.02;100.00;100133.97;5570725;32;34684;-69
2022/09/25 12:59:37;;;;;;;2.53;2.05;;;;;;;14.88;100.00;100129.63;5556937;32;33975;-70
2022/09/25 13:02:58;;;;;;;4.22;2.30;;;;;;;14.50;100.00;100128.47;5570594;32;34003;-70
2022/09/25 13:06:09;;;;;;;3.47;2.20;;;;;;;14.11;100.00;100127.22;5570962;32;33992;-71
2022/09/25 13:09:46;;;;;;;4.60;2.30;;;;;;;14.09;100.00;100134.59;5570972;32;34556;-74
2022/09/25 13:12:50;;;;;;;4.50;2.42;;;;;;;13.94;100.00;100140.03;5557647;32;34525;-72
2022/09/25 13:15:56;;;;;;;6.75;2.90;;;;;;;13.71;100.00;100128.81;5570511;32;34853;-71
2022/09/25 13:19:24;;;;;;;4.22;2.90;;;;;;;13.65;100.00;100123.44;5570860;32;34437;-72
2022/09/25 13:22:26;;;;;;;3.62;2.85;;;;;;;13.66;100.00;100125.91;5570246;32;34828;-72
2022/09/25 13:25:40;;;;;;;5.93;3.25;;;;;;;13.57;100.00;100124.41;5570343;32;33852;-72
2022/09/25 13:28:56;;;;;;;6.45;3.60;;;;;;;13.47;100.00;100121.22;5570375;32;35286;-74
2022/09/25 13:32:18;;;;;;;4.43;3.40;;;;;;;13.68;100.00;100126.53;5570016;32;34034;-73
2022/09/25 13:35:22;;;;;;;6.32;3.58;;;;;;;13.68;100.00;100129.22;5570221;32;34574;-73
2022/09/25 13:41:56;;;;;;;5.37;3.62;;;;;;;13.75;100.00;100119.41;5570410;32;33960;-72
2022/09/25 13:45:08;;;;;;;4.93;3.97;;;;;;;13.81;100.00;100115.13;5570659;32;34448;-72
2022/09/25 13:48:14;;;;;;;5.97;4.43;;;;;;;13.92;100.00;100111.94;5570294;32;33943;-71
2022/09/25 13:51:20;;;;;;;6.35;4.40;;;;;;;13.93;100.00;100114.41;5570178;32;34245;-72
2022/09/25 13:54:25;;;;;;;6.32;4.05;;;;;;;13.86;100.00;100120.72;5570230;32;33927;-72
2022/09/25 13:57:53;;;;;;;4.37;3.97;;;;;;;13.81;100.00;100115.13;5570569;32;34562;-71
2022/09/25 14:01:01;;;;;;;4.97;3.55;;;;;;;13.87;100.00;100109.84;5556471;32;32735;-71
2022/09/25 14:04:13;;;;;;;7.10;4.05;;;;;;;13.87;100.00;100114.38;5570363;32;34074;-71
2022/09/25 14:07:25;;;;;;;6.95;3.85;;;;;;;13.85;100.00;100109.22;5570221;32;33863;-72
2022/09/25 14:10:31;;;;;;;6.00;4.22;;;;;;;13.79;100.00;100115.34;5570251;32;34249;-72
2022/09/25 14:13:34;;;;;;;6.95;4.10;;;;;;;13.75;100.00;100113.25;5556372;32;32615;-72
2022/09/25 14:16:48;;;;;;;5.47;3.58;;;;;;;13.63;100.00;100109.47;5555999;32;32798;-72
2022/09/25 14:19:53;;;;;;;6.10;4.00;;;;;;;13.65;100.00;100105.59;5556099;32;32694;-73
2022/09/25 14:23:00;;;;;;;7.12;3.92;;;;;;;13.57;100.00;100102.25;5569999;32;33900;-74
2022/09/25 14:26:14;;;;;;;8.10;4.62;;;;;;;13.64;100.00;100103.97;5556439;32;33184;-74
2022/09/25 14:29:22;;;;;;;9.95;4.97;;;;;;;13.63;100.00;100099.62;5570073;32;34665;-74
2022/09/25 14:32:37;;;;;;;10.18;5.68;;;;;;;13.63;100.00;100102.31;5556143;32;33338;-74
2022/09/25 14:36:15;;;;;;;11.52;5.68;;;;;;;13.58;100.00;100098.56;5569751;32;35184;-74
2022/09/25 14:39:30;;;;;;;11.43;5.53;;;;;;;13.64;100.00;100095.13;5556196;32;32354;-74
2022/09/25 14:42:53;;;;;;;7.85;4.80;;;;;;;13.64;100.00;100101.28;5556033;32;34638;-74
2022/09/25 14:46:10;;;;;;;6.90;4.30;;;;;;;13.55;100.00;100101.63;5555152;32;33024;-73
2022/09/25 14:49:32;;;;;;;8.38;4.87;;;;;;;13.46;100.00;100093.75;5570000;32;34279;-74
2022/09/25 14:52:36;;;;;;;8.43;5.18;;;;;;;13.38;100.00;100077.94;5570097;32;34013;-73
2022/09/25 14:55:45;;;;;;;7.12;5.10;;;;;;;13.40;100.00;100077.75;5569532;32;34742;-74